createdAt,value
2018-07-10T00:00:18.113Z,64.04
2018-07-10T00:03:35.245Z,64.45
2018-07-10T00:06:19.901Z,64.03
2018-07-10T00:10:33.961Z,64.35
2018-07-10T00:13:04.288Z,64.07
2018-07-10T00:15:35.194Z,66.15
2018-07-10T00:18:05.917Z,66.70
2018-07-10T00:20:36.601Z,67.06
2018-07-10T00:23:06.909Z,66.24
2018-07-10T00:25:37.956Z,66.31
2018-07-10T00:28:08.173Z,67.02
2018-07-10T00:30:38.394Z,66.96
2018-07-10T00:33:08.488Z,67.04
2018-07-10T00:35:39.433Z,66.31
2018-07-10T00:38:26.535Z,66.28
2018-07-10T00:40:58.169Z,65.95
2018-07-10T00:43:28.886Z,65.72
2018-07-10T00:45:59.852Z,66.71
2018-07-10T00:48:30.605Z,66.86
2018-07-10T00:51:01.594Z,67.02
2018-07-10T00:53:32.317Z,66.65
2018-07-10T00:56:03.057Z,65.50
2018-07-10T00:58:33.958Z,65.96
2018-07-10T01:01:04.816Z,65.72
2018-07-10T01:03:34.813Z,65.72
2018-07-10T01:06:05.978Z,64.70
2018-07-10T01:08:36.285Z,65.17
2018-07-10T01:11:13.696Z,64.69
2018-07-10T01:13:44.817Z,65.49
2018-07-10T01:16:16.809Z,66.35
2018-07-10T01:18:47.682Z,65.12
2018-07-10T01:21:23.194Z,65.17
2018-07-10T01:24:00.608Z,65.57
2018-07-10T01:26:38.895Z,65.31
2018-07-10T01:29:21.037Z,64.45
2018-07-10T01:31:54.829Z,65.00
2018-07-10T01:34:25.761Z,65.14
2018-07-10T01:36:56.529Z,65.85
2018-07-10T01:39:27.140Z,65.18
2018-07-10T01:41:57.492Z,65.96
2018-07-10T01:44:28.209Z,66.53
2018-07-10T01:46:58.981Z,66.76
2018-07-10T01:49:29.621Z,66.50
2018-07-10T01:52:00.491Z,66.03
2018-07-10T01:54:31.404Z,65.75
2018-07-10T01:57:02.394Z,65.84
2018-07-10T01:59:33.293Z,65.47
2018-07-10T02:02:04.205Z,65.51
2018-07-10T02:04:35.019Z,65.56
2018-07-10T02:07:05.627Z,66.09
2018-07-10T02:09:36.401Z,65.48
2018-07-10T02:12:07.856Z,65.62
2018-07-10T02:14:38.128Z,66.98
2018-07-10T02:17:08.996Z,67.46
2018-07-10T02:19:39.939Z,67.48
2018-07-10T02:22:10.109Z,66.79
2018-07-10T02:24:40.878Z,66.47
2018-07-10T02:27:11.970Z,66.13
2018-07-10T02:29:42.685Z,66.73
2018-07-10T02:32:13.424Z,66.98
2018-07-10T02:34:44.104Z,66.95
2018-07-10T02:37:15.030Z,67.44
2018-07-10T02:39:45.770Z,66.91
2018-07-10T02:42:17.554Z,67.75
2018-07-10T02:44:48.190Z,66.91
2018-07-10T02:47:19.277Z,66.95
2018-07-10T02:49:50.534Z,65.93
2018-07-10T02:52:21.478Z,66.56
2018-07-10T02:54:52.277Z,66.65
2018-07-10T02:57:23.993Z,67.01
2018-07-10T02:59:54.730Z,66.83
2018-07-10T03:02:29.775Z,66.71
2018-07-10T03:05:04.001Z,65.62
2018-07-10T03:07:35.865Z,65.93
2018-07-10T03:10:06.577Z,65.99
2018-07-10T03:12:38.182Z,66.89
2018-07-10T03:15:12.626Z,66.62
2018-07-10T03:17:43.524Z,66.74
2018-07-10T03:20:14.326Z,66.05
2018-07-10T03:22:45.021Z,66.52
2018-07-10T03:25:15.693Z,67.78
2018-07-10T03:27:46.457Z,66.99
2018-07-10T03:30:17.169Z,67.33
2018-07-10T03:32:47.833Z,67.90
2018-07-10T03:35:18.366Z,67.83
2018-07-10T03:37:49.401Z,68.36
2018-07-10T03:40:20.561Z,67.58
2018-07-10T03:42:51.802Z,66.82
2018-07-10T03:45:22.641Z,66.42
2018-07-10T03:47:53.802Z,68.90
2018-07-10T03:50:24.717Z,67.10
2018-07-10T03:52:56.532Z,66.85
2018-07-10T03:55:27.385Z,65.41
2018-07-10T03:58:00.210Z,64.54
2018-07-10T04:00:32.065Z,65.12
2018-07-10T04:03:03.194Z,66.09
2018-07-10T04:05:34.063Z,65.60
2018-07-10T04:08:07.221Z,64.53
2018-07-10T04:10:38.347Z,64.62
2018-07-10T04:13:17.364Z,64.23
2018-07-10T04:15:48.761Z,63.81
2018-07-10T04:18:24.598Z,63.30
2018-07-10T04:21:34.333Z,63.98
2018-07-10T04:24:21.329Z,64.78
2018-07-10T04:28:17.757Z,63.71
2018-07-10T04:31:04.073Z,63.74
2018-07-10T04:33:34.841Z,64.40
2018-07-10T04:36:05.606Z,64.60
2018-07-10T04:38:36.234Z,64.42
2018-07-10T04:41:19.139Z,64.16
2018-07-10T04:43:56.569Z,64.15
2018-07-10T04:46:33.318Z,64.54
2018-07-10T04:49:21.577Z,65.10
2018-07-10T04:52:01.196Z,62.87
2018-07-10T04:54:45.677Z,64.43
2018-07-10T04:57:20.067Z,63.52
2018-07-10T04:59:50.630Z,63.71
2018-07-10T05:02:21.821Z,62.60
2018-07-10T05:04:52.655Z,59.77
2018-07-10T05:07:23.333Z,59.28
2018-07-10T05:09:54.129Z,59.27
2018-07-10T05:12:25.058Z,61.14
2018-07-10T05:14:56.845Z,60.28
2018-07-10T05:17:27.789Z,60.04
2018-07-10T05:19:58.701Z,57.60
2018-07-10T05:22:30.854Z,57.64
2018-07-10T05:25:01.658Z,56.51
2018-07-10T05:27:32.200Z,56.95
2018-07-10T05:30:02.423Z,56.81
2018-07-10T05:32:34.289Z,55.32
2018-07-10T05:35:05.227Z,55.93
2018-07-10T05:37:37.441Z,54.95
2018-07-10T05:40:12.196Z,54.75
2018-07-10T05:42:47.429Z,55.29
2018-07-10T05:45:22.964Z,54.39
2018-07-10T05:48:04.801Z,53.91
2018-07-10T05:50:37.805Z,53.55
2018-07-10T05:53:11.901Z,53.16
2018-07-10T05:55:48.094Z,53.17
2018-07-10T05:58:18.889Z,51.68
2018-07-10T06:00:49.727Z,52.21
2018-07-10T06:03:20.774Z,51.67
2018-07-10T06:05:51.601Z,52.54
2018-07-10T06:08:22.682Z,51.22
2018-07-10T06:10:53.478Z,51.51
2018-07-10T06:13:25.014Z,50.72
2018-07-10T06:15:55.661Z,51.83
2018-07-10T06:18:26.630Z,52.99
2018-07-10T06:20:56.824Z,52.34
2018-07-10T06:23:34.014Z,51.70
2018-07-10T06:26:04.854Z,51.40
2018-07-10T06:28:38.015Z,49.55
2018-07-10T06:31:13.757Z,49.80
2018-07-10T06:34:03.962Z,48.51
2018-07-10T06:36:41.142Z,48.92
2018-07-10T06:39:14.616Z,49.07
2018-07-10T06:41:55.102Z,47.21
2018-07-10T06:44:27.668Z,46.23
2018-07-10T06:47:01.377Z,47.73
2018-07-10T06:49:36.950Z,45.84
2018-07-10T06:52:21.947Z,46.42
2018-07-10T06:55:10.217Z,47.03
2018-07-10T06:57:52.842Z,47.31
2018-07-10T07:00:24.102Z,46.80
2018-07-10T07:02:54.553Z,46.84
2018-07-10T07:05:24.785Z,46.99
2018-07-10T07:07:55.284Z,47.99
2018-07-10T07:10:27.009Z,46.08
2018-07-10T07:12:57.474Z,46.14
2018-07-10T07:15:27.692Z,45.67
2018-07-10T07:17:58.393Z,47.13
2018-07-10T07:20:29.093Z,45.81
2018-07-10T07:22:59.873Z,46.02
2018-07-10T07:25:30.674Z,45.61
2018-07-10T07:28:01.430Z,45.22
2018-07-10T07:30:32.287Z,45.08
2018-07-10T07:33:03.126Z,43.46
2018-07-10T07:35:33.979Z,42.29
2018-07-10T07:38:04.822Z,42.61
2018-07-10T07:40:35.782Z,44.74
2018-07-10T07:43:06.389Z,41.82
2018-07-10T07:45:37.250Z,44.34
2018-07-10T07:48:08.465Z,44.29
2018-07-10T07:50:38.728Z,41.05
2018-07-10T07:53:09.526Z,38.79
2018-07-10T07:55:40.497Z,38.26
2018-07-10T07:58:11.278Z,37.52
2018-07-10T08:00:42.017Z,39.39
2018-07-10T08:03:12.654Z,41.67
2018-07-10T08:05:43.453Z,42.43
2018-07-10T08:08:14.126Z,43.34
2018-07-10T08:10:44.826Z,39.80
2018-07-10T08:13:15.674Z,36.99
2018-07-10T08:15:46.626Z,39.66
2018-07-10T08:18:17.849Z,42.71
2018-07-10T08:20:49.223Z,44.01
2018-07-10T08:23:19.866Z,42.26
2018-07-10T08:25:50.493Z,39.46
2018-07-10T08:28:20.805Z,39.40
2018-07-10T08:30:51.730Z,38.36
2018-07-10T08:33:22.574Z,40.61
2018-07-10T08:35:53.442Z,40.35
2018-07-10T08:38:44.553Z,39.58
2018-07-10T08:41:21.022Z,39.18
2018-07-10T08:43:51.789Z,41.27
2018-07-10T08:46:30.069Z,37.37
2018-07-10T08:49:01.077Z,37.63
2018-07-10T08:51:32.122Z,36.49
2018-07-10T08:54:03.205Z,36.41
2018-07-10T08:56:34.126Z,34.96
2018-07-10T08:59:04.898Z,34.28
2018-07-10T09:01:35.228Z,32.41
2018-07-10T09:04:05.970Z,33.89
2018-07-10T09:06:36.830Z,33.26
2018-07-10T09:09:07.662Z,35.28
2018-07-10T09:11:38.538Z,35.74
2018-07-10T09:14:09.402Z,34.88
2018-07-10T09:16:40.358Z,34.60
2018-07-10T09:19:12.611Z,34.49
2018-07-10T09:22:05.429Z,34.64
2018-07-10T09:24:51.776Z,34.20
2018-07-10T09:27:23.888Z,32.44
2018-07-10T09:29:54.181Z,33.44
2018-07-10T09:32:30.109Z,31.54
2018-07-10T09:35:00.841Z,30.67
2018-07-10T09:37:37.917Z,30.62
2018-07-10T09:40:15.970Z,34.25
2018-07-10T09:42:51.411Z,32.18
2018-07-10T09:45:22.109Z,31.75
2018-07-10T09:47:53.062Z,30.38
2018-07-10T09:50:23.317Z,31.90
2018-07-10T09:52:54.174Z,33.96
2018-07-10T09:55:24.771Z,31.22
2018-07-10T09:57:57.945Z,31.32
2018-07-10T10:00:33.402Z,32.85
2018-07-10T10:03:04.961Z,30.90
2018-07-10T10:05:40.405Z,28.73
2018-07-10T10:08:11.485Z,31.12
2018-07-10T10:10:42.174Z,30.18
2018-07-10T10:13:12.713Z,30.38
2018-07-10T10:15:43.739Z,30.97
2018-07-10T10:18:14.701Z,29.67
2018-07-10T10:20:45.401Z,29.05
2018-07-10T10:23:16.161Z,33.06
2018-07-10T10:25:51.767Z,29.20
2018-07-10T10:28:26.485Z,31.55
2018-07-10T10:30:57.414Z,30.74
2018-07-10T10:33:28.537Z,29.51
2018-07-10T10:35:59.461Z,30.30
2018-07-10T10:38:30.662Z,31.76
2018-07-10T10:41:03.781Z,32.45
2018-07-10T10:43:34.689Z,32.86
2018-07-10T10:46:05.413Z,34.55
2018-07-10T10:48:36.685Z,32.73
2018-07-10T10:51:07.569Z,36.29
2018-07-10T10:53:39.450Z,36.17
2018-07-10T10:56:10.301Z,34.35
2018-07-10T10:58:41.808Z,33.57
2018-07-10T11:01:12.564Z,35.21
2018-07-10T11:03:43.510Z,34.87
2018-07-10T11:06:13.715Z,35.17
2018-07-10T11:08:44.553Z,36.32
2018-07-10T11:11:15.515Z,33.22
2018-07-10T11:13:46.474Z,33.03
2018-07-10T11:16:17.017Z,33.75
2018-07-10T11:19:04.177Z,34.40
2018-07-10T11:22:46.419Z,34.44
2018-07-10T11:25:17.475Z,32.83
2018-07-10T11:28:05.188Z,32.06
2018-07-10T11:30:36.478Z,34.49
2018-07-10T11:33:08.116Z,36.47
2018-07-10T11:35:39.641Z,35.21
2018-07-10T11:38:12.838Z,32.47
2018-07-10T11:40:50.434Z,32.14
2018-07-10T11:43:21.448Z,34.18
2018-07-10T11:45:52.503Z,31.77
2018-07-10T11:48:23.366Z,32.33
2018-07-10T11:50:54.117Z,29.70
2018-07-10T11:53:25.025Z,30.03
2018-07-10T11:56:14.350Z,31.66
2018-07-10T11:58:45.126Z,30.22
2018-07-10T12:01:15.881Z,33.90
2018-07-10T12:03:46.887Z,30.81
2018-07-10T12:06:17.657Z,29.24
2018-07-10T12:08:55.976Z,28.50
2018-07-10T12:11:33.029Z,28.75
2018-07-10T12:14:03.971Z,27.39
2018-07-10T12:16:34.697Z,29.13
2018-07-10T12:19:05.557Z,29.09
2018-07-10T12:21:37.175Z,30.56
2018-07-10T12:24:08.258Z,30.33
2018-07-10T12:26:40.386Z,31.45
2018-07-10T12:29:11.742Z,33.80
2018-07-10T12:31:43.083Z,34.47
2018-07-10T12:34:13.576Z,36.95
2018-07-10T12:36:44.477Z,36.37
2018-07-10T12:39:15.422Z,33.18
2018-07-10T12:41:46.539Z,32.27
2018-07-10T12:44:17.501Z,32.13
2018-07-10T12:46:48.573Z,32.38
2018-07-10T12:49:19.952Z,32.88
2018-07-10T12:51:51.896Z,33.10
2018-07-10T12:54:22.455Z,33.93
2018-07-10T12:56:54.045Z,34.51
2018-07-10T12:59:24.940Z,36.15
2018-07-10T13:01:56.156Z,36.44
2018-07-10T13:04:28.793Z,35.97
2018-07-10T13:07:00.536Z,33.19
2018-07-10T13:09:31.270Z,33.44
2018-07-10T13:12:02.201Z,32.66
2018-07-10T13:14:33.702Z,32.73
2018-07-10T13:17:04.793Z,33.90
2018-07-10T13:19:39.957Z,35.57
2018-07-10T13:22:12.136Z,36.28
2018-07-10T13:24:43.265Z,32.51
2018-07-10T13:27:14.014Z,30.63
2018-07-10T13:29:44.923Z,31.85
2018-07-10T13:32:15.859Z,29.01
2018-07-10T13:34:46.542Z,31.20
2018-07-10T13:37:17.704Z,29.86
2018-07-10T13:39:48.429Z,31.28
2018-07-10T13:42:19.817Z,33.01
2018-07-10T13:44:50.020Z,33.09
2018-07-10T13:47:21.165Z,32.73
2018-07-10T13:49:51.809Z,30.88
2018-07-10T13:52:23.701Z,27.11
2018-07-10T13:54:54.894Z,27.77
2018-07-10T13:57:25.958Z,28.98
2018-07-10T13:59:57.022Z,29.08
2018-07-10T14:02:30.010Z,29.91
2018-07-10T14:05:01.456Z,31.48
2018-07-10T14:07:32.954Z,29.29
2018-07-10T14:10:03.898Z,31.13
2018-07-10T14:12:35.662Z,31.96
2018-07-10T14:16:35.817Z,30.35
2018-07-10T14:19:07.289Z,28.83
2018-07-10T14:21:38.726Z,28.86
2018-07-10T14:24:09.661Z,31.11
2018-07-10T14:26:40.307Z,29.10
2018-07-10T14:29:10.954Z,26.74
2018-07-10T14:31:41.590Z,26.53
2018-07-10T14:34:12.373Z,24.39
2018-07-10T14:36:43.217Z,24.75
2018-07-10T14:39:14.266Z,24.34
2018-07-10T14:41:46.170Z,24.07
2018-07-10T14:44:17.179Z,25.34
2018-07-10T14:46:47.897Z,22.98
2018-07-10T14:49:19.185Z,24.97
2018-07-10T14:51:52.550Z,23.57
2018-07-10T14:54:23.656Z,22.70
2018-07-10T14:56:54.613Z,23.09
2018-07-10T14:59:25.621Z,26.30
2018-07-10T15:01:56.531Z,27.09
2018-07-10T15:04:27.341Z,26.19
2018-07-10T15:06:58.004Z,28.02
2018-07-10T15:09:35.446Z,28.58
2018-07-10T15:12:06.693Z,29.07
2018-07-10T15:14:37.115Z,28.85
2018-07-10T15:17:12.890Z,29.12
2018-07-10T15:19:45.190Z,29.92
2018-07-10T15:22:16.581Z,30.08
2018-07-10T15:24:48.208Z,30.45
2018-07-10T15:27:19.111Z,28.12
2018-07-10T15:29:50.112Z,26.97
2018-07-10T15:32:20.879Z,25.90
2018-07-10T15:34:51.658Z,28.74
2018-07-10T15:37:22.598Z,27.52
2018-07-10T15:39:53.491Z,27.16
2018-07-10T15:42:24.390Z,26.85
2018-07-10T15:44:55.137Z,27.30
2018-07-10T15:47:25.885Z,27.30
2018-07-10T15:49:56.667Z,26.85
2018-07-10T15:52:27.409Z,27.27
2018-07-10T15:54:58.169Z,27.20
2018-07-10T15:57:29.118Z,28.27
2018-07-10T15:59:59.554Z,28.68
2018-07-10T16:02:29.977Z,27.55
2018-07-10T16:05:00.859Z,27.71
2018-07-10T16:07:31.749Z,27.91
2018-07-10T16:10:02.570Z,27.35
2018-07-10T16:12:33.475Z,27.44
2018-07-10T16:15:03.853Z,27.69
2018-07-10T16:17:34.362Z,28.51
2018-07-10T16:20:10.378Z,29.44
2018-07-10T16:22:43.696Z,29.39
2018-07-10T16:25:30.801Z,30.23
2018-07-10T16:28:04.822Z,30.63
2018-07-10T16:30:35.726Z,30.81
2018-07-10T16:33:06.642Z,31.62
2018-07-10T16:35:37.421Z,31.68
2018-07-10T16:38:07.673Z,31.31
2018-07-10T16:40:38.479Z,32.92
2018-07-10T16:43:13.980Z,33.29
2018-07-10T16:45:44.926Z,32.77
2018-07-10T16:48:41.665Z,34.09
2018-07-10T16:52:00.770Z,35.01
2018-07-10T16:54:30.989Z,34.60
2018-07-10T16:57:01.723Z,35.04
2018-07-10T16:59:32.841Z,35.39
2018-07-10T17:02:03.435Z,35.09
2018-07-10T17:04:33.993Z,35.59
2018-07-10T17:07:04.865Z,35.02
2018-07-10T17:09:35.431Z,35.55
2018-07-10T17:12:06.177Z,35.49
2018-07-10T17:14:37.822Z,36.51
2018-07-10T17:17:12.785Z,36.64
2018-07-10T17:19:43.570Z,36.76
2018-07-10T17:22:14.481Z,37.30
2018-07-10T17:24:45.322Z,38.50
2018-07-10T17:27:15.425Z,38.28
2018-07-10T17:29:46.229Z,38.66
2018-07-10T17:32:17.665Z,38.81
2018-07-10T17:34:48.401Z,38.94
2018-07-10T17:37:19.406Z,39.55
2018-07-10T17:39:50.581Z,41.14
2018-07-10T17:42:21.901Z,41.14
2018-07-10T17:44:52.792Z,41.30
2018-07-10T17:47:23.522Z,41.27
2018-07-10T17:49:55.608Z,41.96
2018-07-10T17:52:26.575Z,42.22
2018-07-10T17:54:56.762Z,42.78
2018-07-10T17:57:29.186Z,43.06
2018-07-10T18:00:00.861Z,43.30
2018-07-10T18:02:31.842Z,43.34
2018-07-10T18:05:02.609Z,43.39
2018-07-10T18:07:33.286Z,43.97
2018-07-10T18:10:04.170Z,43.60
2018-07-10T18:12:35.023Z,44.17
2018-07-10T18:15:05.714Z,44.17
2018-07-10T18:17:35.924Z,44.63
2018-07-10T18:20:06.591Z,44.97
2018-07-10T18:22:37.624Z,45.08
2018-07-10T18:25:08.830Z,44.88
2018-07-10T18:27:39.493Z,45.55
2018-07-10T18:30:10.507Z,45.12
2018-07-10T18:32:41.505Z,45.07
2018-07-10T18:35:12.376Z,44.95
2018-07-10T18:37:44.238Z,45.10
2018-07-10T18:40:15.057Z,44.52
2018-07-10T18:42:45.882Z,46.19
2018-07-10T18:45:16.685Z,47.04
2018-07-10T18:47:46.945Z,47.29
2018-07-10T18:50:18.585Z,46.92
2018-07-10T18:52:52.251Z,46.85
2018-07-10T18:55:22.477Z,47.77
2018-07-10T18:57:59.368Z,48.16
2018-07-10T19:00:39.906Z,47.46
2018-07-10T19:03:13.525Z,46.95
2018-07-10T19:05:46.726Z,47.49
2018-07-10T19:08:17.607Z,47.96
2018-07-10T19:10:48.407Z,47.64
2018-07-10T19:13:19.529Z,48.09
2018-07-10T19:15:50.766Z,47.53
2018-07-10T19:18:21.897Z,48.11
2018-07-10T19:21:02.639Z,48.04
2018-07-10T19:23:45.211Z,48.52
2018-07-10T19:26:16.952Z,48.21
2018-07-10T19:28:48.712Z,48.50
2018-07-10T19:31:24.391Z,48.44
2018-07-10T19:33:56.985Z,48.55
2018-07-10T19:36:27.953Z,48.78
2018-07-10T19:38:59.534Z,48.93
2018-07-10T19:41:30.786Z,49.15
2018-07-10T19:44:01.895Z,49.84
2018-07-10T19:46:35.071Z,50.22
2018-07-10T19:49:06.782Z,50.92
2018-07-10T19:51:39.670Z,51.25
2018-07-10T19:54:15.756Z,51.23
2018-07-10T19:56:46.558Z,51.61
2018-07-10T19:59:18.793Z,52.30
2018-07-10T20:01:56.133Z,52.29
2018-07-10T20:05:14.206Z,52.79
2018-07-10T20:08:01.723Z,52.10
2018-07-10T20:10:51.081Z,52.05
2018-07-10T20:13:46.118Z,51.44
2018-07-10T20:16:41.645Z,51.40
2018-07-10T20:19:33.123Z,52.13
2018-07-10T20:22:14.509Z,52.44
2018-07-10T20:25:09.070Z,52.78
2018-07-10T20:28:02.749Z,53.43
2018-07-10T20:30:54.571Z,53.54
2018-07-10T20:33:42.339Z,54.02
2018-07-10T20:36:13.419Z,54.18
2018-07-10T20:38:44.379Z,54.42
2018-07-10T20:41:15.237Z,55.48
2018-07-10T20:43:52.245Z,54.94
2018-07-10T20:46:24.002Z,55.22
2018-07-10T20:49:01.530Z,54.83
2018-07-10T20:51:47.969Z,55.38
2018-07-10T20:54:25.389Z,55.05
2018-07-10T20:58:12.054Z,55.60
2018-07-10T21:00:51.949Z,55.51
2018-07-10T21:03:29.485Z,56.51
2018-07-10T21:06:11.882Z,56.02
2018-07-10T21:09:15.233Z,56.54
2018-07-10T21:12:11.784Z,56.96
2018-07-10T21:15:16.513Z,56.30
2018-07-10T21:21:11.967Z,56.68
2018-07-10T21:24:00.900Z,57.35
2018-07-10T21:27:09.085Z,56.94
2018-07-10T21:30:48.939Z,57.24
2018-07-10T21:34:02.998Z,57.60
2018-07-10T21:36:48.197Z,57.82
2018-07-10T21:40:26.109Z,57.71
2018-07-10T21:43:24.257Z,57.97
2018-07-10T21:47:01.558Z,58.72
2018-07-10T21:49:56.293Z,58.93
2018-07-10T21:52:27.226Z,58.09
2018-07-10T21:54:57.901Z,57.89
2018-07-10T21:57:37.885Z,57.80
2018-07-10T22:00:08.089Z,57.79
2018-07-10T22:02:39.151Z,57.02
2018-07-10T22:05:09.398Z,57.30
2018-07-10T22:07:40.133Z,57.31
2018-07-10T22:10:10.784Z,56.88
2018-07-10T22:12:47.305Z,57.24
2018-07-10T22:15:18.021Z,57.05
2018-07-10T22:17:49.697Z,57.35
2018-07-10T22:20:19.909Z,57.87
2018-07-10T22:22:50.140Z,57.83
2018-07-10T22:25:20.381Z,59.10
2018-07-10T22:27:51.307Z,58.96
2018-07-10T22:30:26.525Z,58.24
2018-07-10T22:33:01.787Z,58.24
2018-07-10T22:35:32.444Z,58.92
2018-07-10T22:38:04.393Z,59.28
2018-07-10T22:40:35.201Z,59.72
2018-07-10T22:43:06.533Z,60.10
2018-07-10T22:45:39.286Z,59.20
2018-07-10T22:48:10.210Z,59.74
2018-07-10T22:50:40.740Z,59.97
2018-07-10T22:53:11.449Z,59.86
2018-07-10T22:55:42.213Z,60.14
2018-07-10T22:58:13.203Z,60.64
2018-07-10T23:00:43.397Z,60.68
2018-07-10T23:03:24.773Z,60.58
2018-07-10T23:05:56.181Z,60.47
2018-07-10T23:08:33.885Z,60.09
2018-07-10T23:11:07.093Z,59.79
2018-07-10T23:13:42.387Z,59.53
2018-07-10T23:16:13.128Z,59.79
2018-07-10T23:18:45.661Z,59.59
2018-07-10T23:21:18.622Z,60.01
2018-07-10T23:23:51.136Z,59.59
2018-07-10T23:26:21.773Z,60.51
2018-07-10T23:28:55.350Z,60.88
2018-07-10T23:31:29.972Z,59.98
2018-07-10T23:34:12.061Z,59.88
2018-07-10T23:36:42.677Z,60.16
2018-07-10T23:39:13.574Z,60.03
2018-07-10T23:42:51.237Z,60.12
2018-07-10T23:45:24.982Z,60.10
2018-07-10T23:48:02.250Z,60.78
2018-07-10T23:50:34.588Z,61.36
2018-07-10T23:54:15.502Z,61.58
2018-07-10T23:56:46.789Z,61.25
2018-07-10T23:59:17.541Z,61.21
